createdAt,value
2024-02-02T00:01:14.167Z,133.90
2024-02-02T00:03:41.348Z,126.30
2024-02-02T00:06:09.159Z,125.07
2024-02-02T00:08:36.762Z,128.80
2024-02-02T00:11:03.900Z,121.65
2024-02-02T00:13:31.097Z,124.75
2024-02-02T00:15:58.538Z,123.97
2024-02-02T00:18:25.865Z,128.43
2024-02-02T00:20:54.704Z,113.63
2024-02-02T00:23:21.964Z,114.35
2024-02-02T00:25:49.060Z,126.93
2024-02-02T00:28:16.913Z,119.20
2024-02-02T00:30:44.282Z,124.70
2024-02-02T00:33:11.592Z,122.72
2024-02-02T00:35:38.945Z,116.90
2024-02-02T00:38:06.107Z,121.03
2024-02-02T00:40:33.380Z,127.13
2024-02-02T00:43:00.514Z,119.13
2024-02-02T00:45:27.743Z,129.70
2024-02-02T00:47:55.007Z,117.70
2024-02-02T00:50:22.217Z,117.72
2024-02-02T00:52:50.276Z,120.45
2024-02-02T00:55:17.509Z,123.95
2024-02-02T00:57:44.782Z,130.52
2024-02-02T01:00:12.254Z,123.88
2024-02-02T01:02:40.535Z,133.32
2024-02-02T01:05:09.613Z,114.43
2024-02-02T01:07:36.997Z,125.10
2024-02-02T01:10:07.149Z,130.93
2024-02-02T01:12:35.697Z,118.75
2024-02-02T01:15:03.497Z,114.65
2024-02-02T01:17:31.121Z,116.22
2024-02-02T01:20:03.681Z,129.02
2024-02-02T01:22:31.732Z,113.20
2024-02-02T01:24:58.976Z,116.95
2024-02-02T01:27:26.391Z,118.30
2024-02-02T01:29:53.662Z,122.38
2024-02-02T01:32:20.824Z,118.20
2024-02-02T01:34:48.086Z,126.78
2024-02-02T01:37:15.285Z,119.30
2024-02-02T01:39:42.513Z,117.90
2024-02-02T01:42:09.790Z,116.45
2024-02-02T01:44:37.025Z,124.97
2024-02-02T01:47:04.798Z,115.30
2024-02-02T01:49:32.213Z,123.28
2024-02-02T01:51:59.514Z,121.18
2024-02-02T01:54:26.759Z,118.90
2024-02-02T01:56:54.013Z,122.43
2024-02-02T01:59:21.201Z,131.10
2024-02-02T02:01:48.347Z,121.68
2024-02-02T02:04:15.832Z,122.75
2024-02-02T02:06:43.295Z,123.30
2024-02-02T02:09:10.974Z,120.80
2024-02-02T02:11:39.003Z,123.80
2024-02-02T02:14:06.302Z,116.60
2024-02-02T02:16:33.536Z,117.30
2024-02-02T02:19:03.900Z,131.40
2024-02-02T02:21:31.406Z,119.50
2024-02-02T02:23:58.796Z,119.75
2024-02-02T02:26:27.285Z,117.25
2024-02-02T02:28:54.524Z,111.40
2024-02-02T02:31:21.697Z,120.55
2024-02-02T02:33:49.037Z,116.28
2024-02-02T02:36:16.443Z,115.78
2024-02-02T02:38:46.870Z,113.28
2024-02-02T02:41:14.128Z,123.32
2024-02-02T02:43:41.720Z,118.82
2024-02-02T02:46:09.256Z,117.72
2024-02-02T02:48:40.059Z,118.82
2024-02-02T02:51:07.378Z,120.85
2024-02-02T02:53:34.644Z,119.00
2024-02-02T02:56:01.821Z,107.40
2024-02-02T02:58:29.429Z,118.60
2024-02-02T03:00:57.235Z,115.22
2024-02-02T03:03:24.534Z,121.30
2024-02-02T03:05:51.919Z,114.72
2024-02-02T03:08:19.181Z,114.05
2024-02-02T03:10:46.498Z,120.95
2024-02-02T03:13:13.704Z,107.75
2024-02-02T03:15:41.457Z,118.60
2024-02-02T03:18:13.641Z,115.00
2024-02-02T03:20:40.905Z,111.72
2024-02-02T03:23:08.087Z,116.88
2024-02-02T03:25:35.258Z,117.07
2024-02-02T03:28:02.575Z,117.97
2024-02-02T03:30:30.851Z,121.18
2024-02-02T03:32:58.278Z,110.85
2024-02-02T03:35:25.640Z,113.63
2024-02-02T03:37:52.841Z,117.75
2024-02-02T03:40:19.974Z,113.78
2024-02-02T03:42:47.220Z,113.60
2024-02-02T03:45:14.509Z,116.82
2024-02-02T03:47:41.755Z,115.35
2024-02-02T03:50:09.399Z,117.53
2024-02-02T03:52:36.621Z,111.50
2024-02-02T03:55:03.982Z,110.47
2024-02-02T03:57:31.266Z,112.20
2024-02-02T03:59:58.463Z,112.93
2024-02-02T04:02:25.864Z,116.78
2024-02-02T04:04:53.126Z,107.15
2024-02-02T04:07:20.415Z,118.38
2024-02-02T04:09:48.043Z,107.65
2024-02-02T04:12:15.221Z,106.18
2024-02-02T04:14:42.339Z,114.18
2024-02-02T04:17:09.599Z,120.32
2024-02-02T04:19:36.911Z,116.32
2024-02-02T04:22:04.244Z,114.57
2024-02-02T04:24:31.528Z,121.25
2024-02-02T04:26:58.751Z,110.30
2024-02-02T04:29:25.987Z,110.93
2024-02-02T04:31:53.184Z,115.80
2024-02-02T04:34:20.481Z,120.22
2024-02-02T04:36:47.796Z,111.55
2024-02-02T04:39:15.128Z,115.70
2024-02-02T04:41:42.330Z,113.07
2024-02-02T04:44:09.485Z,117.35
2024-02-02T04:46:36.668Z,115.22
2024-02-02T04:49:04.357Z,112.45
2024-02-02T04:51:31.840Z,119.15
2024-02-02T04:53:59.098Z,103.45
2024-02-02T04:56:26.297Z,111.13
2024-02-02T04:58:54.510Z,105.78
2024-02-02T05:01:21.756Z,114.80
2024-02-02T05:03:49.071Z,112.88
2024-02-02T05:06:18.069Z,113.50
2024-02-02T05:08:45.553Z,106.67
2024-02-02T05:11:13.876Z,106.60
2024-02-02T05:13:41.167Z,105.22
2024-02-02T05:16:10.529Z,105.13
2024-02-02T05:18:38.995Z,105.72
2024-02-02T05:21:06.378Z,104.85
2024-02-02T05:23:33.636Z,110.45
2024-02-02T05:26:00.873Z,126.13
2024-02-02T05:28:28.028Z,113.95
2024-02-02T05:30:55.207Z,109.75
2024-02-02T05:33:22.564Z,118.53
2024-02-02T05:35:50.213Z,116.63
2024-02-02T05:38:17.481Z,127.65
2024-02-02T05:40:44.634Z,124.32
2024-02-02T05:43:13.334Z,126.50
2024-02-02T05:45:40.662Z,120.88
2024-02-02T05:48:08.325Z,120.22
2024-02-02T05:50:35.573Z,120.18
2024-02-02T05:53:02.913Z,122.75
2024-02-02T05:55:30.473Z,118.35
2024-02-02T05:57:58.376Z,128.88
2024-02-02T06:00:26.208Z,132.68
2024-02-02T06:02:53.646Z,112.10
2024-02-02T06:05:20.949Z,114.50
2024-02-02T06:07:48.366Z,118.10
2024-02-02T06:10:15.837Z,117.40
2024-02-02T06:12:43.234Z,105.75
2024-02-02T06:15:10.714Z,107.95
2024-02-02T06:17:38.242Z,114.38
2024-02-02T06:20:05.892Z,112.35
2024-02-02T06:22:33.190Z,113.25
2024-02-02T06:25:00.378Z,124.18
2024-02-02T06:27:28.656Z,120.07
2024-02-02T06:29:55.940Z,133.93
2024-02-02T06:32:24.873Z,130.90
2024-02-02T06:34:57.023Z,134.63
2024-02-02T06:37:25.398Z,123.32
2024-02-02T06:39:53.811Z,124.97
2024-02-02T06:42:21.336Z,119.88
2024-02-02T06:44:51.075Z,110.75
2024-02-02T06:47:18.606Z,110.43
2024-02-02T06:49:46.181Z,113.18
2024-02-02T06:52:14.828Z,117.00
2024-02-02T06:54:42.659Z,121.68
2024-02-02T06:57:09.892Z,113.10
2024-02-02T06:59:38.107Z,123.75
2024-02-02T07:02:19.108Z,123.45
2024-02-02T07:04:46.595Z,118.45
2024-02-02T07:07:14.130Z,109.97
2024-02-02T07:09:41.891Z,111.07
2024-02-02T07:12:12.558Z,127.32
2024-02-02T07:14:45.798Z,126.35
2024-02-02T07:17:17.219Z,123.93
2024-02-02T07:19:44.572Z,116.15
2024-02-02T07:22:30.747Z,118.63
2024-02-02T07:24:57.930Z,123.53
2024-02-02T07:27:25.188Z,124.60
2024-02-02T07:29:52.596Z,110.93
2024-02-02T07:32:20.022Z,113.97
2024-02-02T07:34:50.100Z,109.28
2024-02-02T07:39:44.538Z,118.75
2024-02-02T07:42:11.813Z,118.80
2024-02-02T07:44:39.322Z,108.82
2024-02-02T07:47:06.604Z,121.25
2024-02-02T07:49:33.833Z,109.10
2024-02-02T07:52:01.076Z,118.97
2024-02-02T07:54:28.288Z,111.65
2024-02-02T07:56:55.512Z,127.35
2024-02-02T07:59:22.698Z,121.70
2024-02-02T08:01:49.874Z,124.63
2024-02-02T08:04:17.275Z,123.97
2024-02-02T08:06:44.618Z,117.45
2024-02-02T08:09:11.928Z,120.43
2024-02-02T08:11:39.285Z,122.03
2024-02-02T08:14:06.518Z,117.35
2024-02-02T08:16:33.698Z,122.15
2024-02-02T08:19:01.136Z,115.30
2024-02-02T08:21:28.605Z,110.38
2024-02-02T08:23:55.942Z,122.60
2024-02-02T08:26:23.229Z,119.72
2024-02-02T08:28:54.830Z,116.18
2024-02-02T08:31:22.731Z,120.38
2024-02-02T08:33:50.336Z,109.50
2024-02-02T08:36:19.297Z,106.55
2024-02-02T08:38:46.691Z,115.47
2024-02-02T08:41:14.122Z,111.50
2024-02-02T08:43:43.088Z,109.88
2024-02-02T08:46:14.883Z,112.70
2024-02-02T08:48:47.883Z,109.85
2024-02-02T08:51:25.421Z,107.22
2024-02-02T08:53:58.610Z,111.18
2024-02-02T08:56:25.789Z,120.82
2024-02-02T08:58:53.349Z,112.70
2024-02-02T09:01:32.904Z,111.28
2024-02-02T09:04:00.463Z,111.35
2024-02-02T09:06:27.751Z,109.20
2024-02-02T09:08:55.118Z,107.55
2024-02-02T09:11:23.981Z,120.95
2024-02-02T09:14:05.266Z,109.97
2024-02-02T09:16:39.429Z,113.95
2024-02-02T09:19:14.750Z,113.18
2024-02-02T09:21:42.109Z,113.60
2024-02-02T09:24:14.367Z,115.53
2024-02-02T09:26:41.802Z,105.95
2024-02-02T09:29:10.830Z,110.60
2024-02-02T09:31:39.392Z,102.47
2024-02-02T09:34:09.385Z,103.32
2024-02-02T09:36:37.390Z,105.75
2024-02-02T09:39:26.386Z,113.13
2024-02-02T09:42:22.895Z,101.60
2024-02-02T09:44:52.313Z,107.80
2024-02-02T09:47:22.473Z,115.20
2024-02-02T09:50:05.660Z,109.30
2024-02-02T09:52:55.985Z,112.00
2024-02-02T09:55:28.912Z,112.88
2024-02-02T09:58:15.772Z,112.93
2024-02-02T10:01:02.008Z,105.43
2024-02-02T10:03:42.071Z,104.57
2024-02-02T10:06:09.812Z,107.28
2024-02-02T10:08:57.089Z,102.22
2024-02-02T10:11:41.494Z,115.43
2024-02-02T10:14:17.851Z,106.22
2024-02-02T10:17:03.901Z,106.70
2024-02-02T10:19:36.708Z,109.28
2024-02-02T10:22:19.483Z,102.57
2024-02-02T10:24:55.747Z,112.07
2024-02-02T10:27:29.660Z,107.35
2024-02-02T10:30:09.778Z,114.40
2024-02-02T10:35:19.704Z,116.00
2024-02-02T10:37:49.809Z,115.03
2024-02-02T10:42:44.114Z,110.47
2024-02-02T10:45:21.065Z,112.50
2024-02-02T10:47:48.353Z,113.50
2024-02-02T10:50:15.781Z,111.57
2024-02-02T10:52:55.405Z,111.45
2024-02-02T10:55:31.669Z,112.65
2024-02-02T10:57:58.881Z,99.95
2024-02-02T11:00:29.545Z,102.45
2024-02-02T11:03:03.247Z,113.55
2024-02-02T11:05:33.457Z,114.60
2024-02-02T11:10:31.747Z,101.80
2024-02-02T11:13:01.805Z,114.80
2024-02-02T11:18:16.472Z,104.00
2024-02-02T11:21:02.404Z,109.80
2024-02-02T11:23:30.108Z,98.53
2024-02-02T11:26:15.932Z,97.78
2024-02-02T11:29:01.072Z,94.03
2024-02-02T11:31:52.664Z,91.85
2024-02-02T11:34:34.372Z,85.63
2024-02-02T11:37:32.480Z,80.90
2024-02-02T11:40:09.430Z,86.15
2024-02-02T11:42:38.452Z,84.53
2024-02-02T11:45:08.403Z,88.45
2024-02-02T11:47:47.273Z,88.65
2024-02-02T11:50:18.666Z,82.70
2024-02-02T11:52:55.507Z,82.68
2024-02-02T11:55:27.118Z,81.50
2024-02-02T11:57:58.818Z,73.05
2024-02-02T12:00:40.154Z,81.80
2024-02-02T12:03:10.304Z,79.40
2024-02-02T12:05:45.387Z,76.63
2024-02-02T12:08:26.807Z,77.25
2024-02-02T12:10:54.823Z,77.95
2024-02-02T12:13:25.674Z,75.22
2024-02-02T12:15:54.135Z,81.40
2024-02-02T12:18:21.884Z,76.78
2024-02-02T12:20:49.538Z,69.05
2024-02-02T12:23:17.118Z,77.03
2024-02-02T12:25:44.271Z,77.00
2024-02-02T12:28:11.436Z,77.13
2024-02-02T12:30:38.881Z,75.60
2024-02-02T12:33:07.127Z,77.20
2024-02-02T12:35:34.711Z,78.90
2024-02-02T12:38:02.028Z,71.78
2024-02-02T12:40:28.963Z,80.05
2024-02-02T12:42:58.880Z,79.05
2024-02-02T12:45:26.503Z,69.90
2024-02-02T12:47:54.629Z,74.38
2024-02-02T12:50:23.032Z,79.20
2024-02-02T12:52:55.254Z,76.05
2024-02-02T12:55:22.713Z,76.65
2024-02-02T12:57:50.195Z,77.93
2024-02-02T13:00:17.990Z,72.95
2024-02-02T13:02:46.689Z,70.53
2024-02-02T13:05:18.145Z,77.38
2024-02-02T13:07:49.295Z,74.90
2024-02-02T13:10:34.681Z,78.15
2024-02-02T13:13:10.615Z,77.95
2024-02-02T13:15:37.845Z,76.88
2024-02-02T13:18:11.564Z,78.75
2024-02-02T13:20:38.786Z,76.97
2024-02-02T13:23:14.320Z,79.22
2024-02-02T13:25:41.899Z,70.57
2024-02-02T13:28:18.370Z,66.25
2024-02-02T13:30:55.666Z,72.22
2024-02-02T13:33:31.392Z,78.75
2024-02-02T13:35:59.564Z,75.45
2024-02-02T13:38:29.143Z,73.47
2024-02-02T13:40:56.766Z,71.80
2024-02-02T13:43:25.474Z,75.72
2024-02-02T13:46:06.709Z,67.85
2024-02-02T13:48:48.477Z,76.40
2024-02-02T13:51:16.051Z,73.15
2024-02-02T13:53:43.437Z,73.35
2024-02-02T13:56:13.656Z,76.57
2024-02-02T13:58:41.106Z,71.20
2024-02-02T14:01:21.546Z,70.65
2024-02-02T14:03:52.621Z,63.28
2024-02-02T14:06:19.943Z,64.30
2024-02-02T14:08:49.265Z,65.13
2024-02-02T14:11:29.397Z,65.82
2024-02-02T14:13:56.898Z,65.45
2024-02-02T14:16:24.883Z,63.28
2024-02-02T14:19:02.705Z,59.72
2024-02-02T14:21:34.414Z,63.33
2024-02-02T14:24:18.444Z,68.30
2024-02-02T14:26:56.424Z,67.32
2024-02-02T14:29:25.455Z,71.10
2024-02-02T14:31:56.890Z,60.53
2024-02-02T14:34:24.811Z,66.90
2024-02-02T14:36:52.696Z,63.45
2024-02-02T14:39:27.616Z,67.57
2024-02-02T14:41:55.854Z,74.38
2024-02-02T14:44:23.715Z,67.90
2024-02-02T14:46:51.032Z,65.35
2024-02-02T14:49:18.688Z,67.65
2024-02-02T14:51:46.104Z,66.80
2024-02-02T14:54:13.394Z,71.20
2024-02-02T14:56:40.716Z,66.82
2024-02-02T14:59:13.794Z,66.22
2024-02-02T15:01:41.810Z,69.38
2024-02-02T15:04:09.560Z,65.65
2024-02-02T15:06:38.247Z,65.53
2024-02-02T15:09:10.351Z,58.00
2024-02-02T15:11:37.826Z,61.92
2024-02-02T15:14:05.089Z,59.00
2024-02-02T15:16:32.748Z,66.25
2024-02-02T15:19:00.279Z,57.58
2024-02-02T15:21:27.606Z,57.28
2024-02-02T15:23:54.824Z,56.38
2024-02-02T15:26:22.025Z,57.83
2024-02-02T15:28:49.256Z,59.70
2024-02-02T15:31:18.463Z,54.58
2024-02-02T15:33:45.926Z,58.17
2024-02-02T15:36:13.753Z,60.70
2024-02-02T15:38:59.538Z,64.72
2024-02-02T15:41:28.198Z,60.22
2024-02-02T15:43:56.667Z,63.13
2024-02-02T15:46:25.165Z,67.22
2024-02-02T15:48:53.140Z,64.28
2024-02-02T15:51:21.097Z,63.78
2024-02-02T15:53:48.312Z,57.75
2024-02-02T15:56:16.670Z,60.25
2024-02-02T15:58:44.138Z,64.75
2024-02-02T16:01:12.635Z,55.72
2024-02-02T16:03:43.585Z,64.75
2024-02-02T16:06:11.487Z,61.75
2024-02-02T16:08:39.291Z,61.67
2024-02-02T16:11:06.508Z,60.67
2024-02-02T16:13:33.802Z,61.97
2024-02-02T16:16:00.993Z,61.25
2024-02-02T16:18:28.325Z,64.53
2024-02-02T16:20:55.590Z,66.45
2024-02-02T16:23:22.773Z,63.78
2024-02-02T16:25:50.022Z,59.70
2024-02-02T16:28:17.238Z,65.63
2024-02-02T16:30:44.437Z,64.10
2024-02-02T16:33:11.909Z,63.55
2024-02-02T16:35:39.179Z,59.63
2024-02-02T16:38:06.454Z,70.13
2024-02-02T16:40:33.677Z,62.47
2024-02-02T16:43:01.464Z,64.38
2024-02-02T16:45:28.690Z,61.78
2024-02-02T16:47:56.113Z,60.00
2024-02-02T16:50:23.544Z,61.15
2024-02-02T16:52:50.764Z,57.05
2024-02-02T16:55:17.953Z,63.63
2024-02-02T16:57:45.147Z,73.13
2024-02-02T17:00:12.793Z,72.68
2024-02-02T17:02:40.183Z,73.60
2024-02-02T17:05:07.853Z,77.97
2024-02-02T17:07:35.236Z,72.95
2024-02-02T17:10:02.533Z,75.57
2024-02-02T17:12:29.781Z,65.78
2024-02-02T17:14:57.451Z,65.85
2024-02-02T17:17:24.639Z,69.72
2024-02-02T17:19:52.270Z,75.28
2024-02-02T17:22:19.604Z,71.68
2024-02-02T17:24:46.832Z,68.50
2024-02-02T17:27:14.068Z,64.07
2024-02-02T17:29:42.614Z,85.95
2024-02-02T17:32:09.933Z,74.88
2024-02-02T17:34:37.388Z,71.55
2024-02-02T17:37:04.830Z,73.78
2024-02-02T17:39:32.643Z,70.60
2024-02-02T17:41:59.994Z,68.88
2024-02-02T17:44:29.006Z,69.50
2024-02-02T17:46:56.617Z,71.30
2024-02-02T17:49:24.023Z,63.63
2024-02-02T17:51:51.376Z,66.97
2024-02-02T17:54:18.923Z,68.05
2024-02-02T17:56:46.085Z,74.43
2024-02-02T17:59:13.262Z,71.47
2024-02-02T18:01:40.621Z,65.50
2024-02-02T18:04:08.132Z,75.65
2024-02-02T18:06:35.509Z,68.47
2024-02-02T18:09:02.745Z,70.55
2024-02-02T18:11:29.957Z,79.45
2024-02-02T18:13:57.805Z,69.60
2024-02-02T18:16:25.315Z,79.05
2024-02-02T18:18:52.799Z,69.53
2024-02-02T18:21:20.058Z,63.47
2024-02-02T18:23:47.368Z,59.70
2024-02-02T18:26:14.520Z,61.10
2024-02-02T18:28:41.723Z,63.05
2024-02-02T18:31:09.052Z,77.20
2024-02-02T18:33:35.936Z,69.18
2024-02-02T18:36:03.354Z,67.65
2024-02-02T18:38:30.644Z,61.95
2024-02-02T18:40:57.885Z,69.70
2024-02-02T18:43:25.124Z,65.05
2024-02-02T18:45:52.409Z,68.60
2024-02-02T18:48:20.378Z,64.85
2024-02-02T18:50:47.797Z,65.63
2024-02-02T18:53:15.037Z,65.78
2024-02-02T18:55:42.318Z,70.60
2024-02-02T18:58:09.604Z,66.15
2024-02-02T19:00:36.908Z,74.00
2024-02-02T19:03:04.900Z,66.18
2024-02-02T19:05:32.336Z,72.40
2024-02-02T19:08:00.132Z,67.32
2024-02-02T19:10:27.391Z,73.47
2024-02-02T19:12:54.635Z,65.32
2024-02-02T19:15:24.009Z,78.05
2024-02-02T19:17:51.257Z,66.55
2024-02-02T19:20:18.496Z,63.95
2024-02-02T19:22:45.822Z,69.00
2024-02-02T19:25:13.040Z,70.38
2024-02-02T19:27:40.401Z,70.65
2024-02-02T19:30:08.056Z,71.32
2024-02-02T19:32:35.412Z,76.50
2024-02-02T19:35:02.823Z,71.60
2024-02-02T19:37:30.043Z,70.88
2024-02-02T19:39:57.497Z,75.18
2024-02-02T19:42:24.827Z,76.93
2024-02-02T19:44:52.124Z,80.75
2024-02-02T19:47:19.468Z,73.70
2024-02-02T19:49:46.727Z,73.13
2024-02-02T19:52:14.128Z,74.45
2024-02-02T19:54:42.863Z,73.72
2024-02-02T19:57:10.160Z,74.20
2024-02-02T19:59:37.520Z,75.10
2024-02-02T20:02:04.845Z,88.40
2024-02-02T20:04:32.044Z,75.97
2024-02-02T20:06:59.501Z,77.28
2024-02-02T20:09:26.816Z,75.30
2024-02-02T20:11:54.106Z,76.90
2024-02-02T20:14:21.440Z,74.47
2024-02-02T20:16:51.317Z,74.70
2024-02-02T20:19:19.816Z,84.57
2024-02-02T20:21:48.654Z,75.80
2024-02-02T20:24:15.900Z,92.05
2024-02-02T20:26:44.022Z,78.95
2024-02-02T20:29:11.814Z,74.82
2024-02-02T20:31:42.631Z,83.00
2024-02-02T20:34:09.950Z,84.13
2024-02-02T20:36:37.365Z,80.28
2024-02-02T20:39:04.633Z,75.70
2024-02-02T20:41:31.911Z,85.03
2024-02-02T20:43:59.349Z,83.82
2024-02-02T20:46:26.932Z,77.65
2024-02-02T20:48:54.344Z,82.03
2024-02-02T20:51:22.029Z,81.03
2024-02-02T20:53:49.407Z,87.80
2024-02-02T20:56:16.739Z,83.15
2024-02-02T20:58:44.035Z,83.70
2024-02-02T21:01:11.543Z,87.95
2024-02-02T21:03:38.858Z,86.82
2024-02-02T21:06:06.504Z,85.40
2024-02-02T21:08:33.786Z,84.45
2024-02-02T21:11:00.662Z,83.15
2024-02-02T21:13:27.872Z,94.75
2024-02-02T21:15:55.798Z,85.07
2024-02-02T21:18:24.434Z,94.55
2024-02-02T21:20:52.258Z,89.10
2024-02-02T21:23:19.723Z,85.68
2024-02-02T21:25:47.339Z,86.25
2024-02-02T21:28:18.793Z,94.90
2024-02-02T21:30:47.242Z,84.18
2024-02-02T21:33:16.982Z,89.22
2024-02-02T21:35:46.778Z,81.10
2024-02-02T21:38:14.055Z,89.78
2024-02-02T21:40:41.302Z,91.20
2024-02-02T21:43:08.657Z,91.30
2024-02-02T21:45:37.091Z,90.40
2024-02-02T21:48:04.597Z,93.55
2024-02-02T21:50:31.705Z,95.32
2024-02-02T21:52:58.983Z,98.63
2024-02-02T21:55:26.246Z,91.85
2024-02-02T21:57:53.578Z,88.47
2024-02-02T22:00:20.949Z,90.00
2024-02-02T22:02:48.129Z,93.65
2024-02-02T22:05:15.081Z,93.53
2024-02-02T22:07:42.443Z,96.07
2024-02-02T22:10:10.039Z,91.78
2024-02-02T22:12:37.315Z,90.68
2024-02-02T22:15:04.639Z,95.93
2024-02-02T22:17:32.395Z,99.53
2024-02-02T22:19:59.948Z,94.25
2024-02-02T22:22:27.215Z,87.40
2024-02-02T22:24:54.656Z,95.43
2024-02-02T22:27:23.843Z,98.72
2024-02-02T22:29:51.454Z,93.53
2024-02-02T22:32:21.538Z,93.80
2024-02-02T22:34:49.429Z,99.35
2024-02-02T22:37:16.704Z,97.22
2024-02-02T22:39:44.019Z,96.70
2024-02-02T22:42:11.199Z,96.13
2024-02-02T22:44:38.402Z,95.45
2024-02-02T22:47:05.875Z,98.43
2024-02-02T22:49:33.416Z,87.35
2024-02-02T22:52:00.923Z,98.15
2024-02-02T22:54:28.196Z,101.00
2024-02-02T22:56:55.454Z,99.18
2024-02-02T22:59:22.645Z,95.10
2024-02-02T23:01:49.979Z,95.40
2024-02-02T23:04:17.474Z,93.80
2024-02-02T23:06:44.888Z,99.22
2024-02-02T23:09:12.986Z,98.45
2024-02-02T23:11:40.243Z,90.13
2024-02-02T23:14:07.459Z,106.47
2024-02-02T23:16:34.765Z,95.28
2024-02-02T23:19:02.187Z,105.30
2024-02-02T23:21:29.874Z,97.57
2024-02-02T23:23:57.268Z,100.97
2024-02-02T23:26:24.515Z,101.90
2024-02-02T23:28:51.761Z,100.35
2024-02-02T23:31:19.567Z,107.30
2024-02-02T23:33:47.040Z,100.07
2024-02-02T23:36:14.471Z,112.95
2024-02-02T23:38:44.550Z,101.97
2024-02-02T23:43:39.538Z,104.55
2024-02-02T23:46:07.023Z,103.13
2024-02-02T23:48:34.228Z,106.43
2024-02-02T23:51:01.503Z,96.28
2024-02-02T23:53:28.669Z,99.80
2024-02-02T23:55:55.895Z,97.40
2024-02-02T23:58:23.143Z,108.30
